EST,Max TemperatureF,Mean TemperatureF,Min TemperatureF,Max Dew PointF,MeanDew PointF,Min DewpointF,Max Humidity, Mean Humidity, Min Humidity, Max Sea Level PressureIn, Mean Sea Level PressureIn, Min Sea Level PressureIn, Max VisibilityMiles, Mean VisibilityMiles, Min VisibilityMiles, Max Wind SpeedMPH, Mean Wind SpeedMPH, Max Gust SpeedMPH,PrecipitationIn, CloudCover, Events, WindDirDegrees
2013-1-1,34,16,-6,24,8,-10,83,62,47,29.97,29.83,29.68,10,10,5,14,7,23,0.00,4,Snow,303
2013-1-2,21,6,-8,12,-2,-13,84,69,48,30.24,30.01,29.89,10,9,2,12,2,20,0.00,4,Snow,358
2013-1-3,10,-2,-15,-4,-11,-20,83,70,40,30.25,30.14,29.95,10,10,9,4,0,,0.00,3,,160
2013-1-4,34,15,-4,24,9,-9,80,70,54,29.99,29.87,29.78,10,8,4,12,2,20,0.00,7,Snow,219
2013-1-5,34,22,10,24,15,6,84,62,43,30.25,30.09,29.81,10,10,6,14,7,24,0.00,3,Snow,306
2013-1-6,32,21,10,26,18,7,89,79,66,30.20,30.00,29.90,10,8,2,5,1,,0.00,7,Snow,64
2013-1-7,30,16,1,27,15,-1,89,74,45,30.37,30.22,29.96,10,8,2,13,3,20,0.00,4,Snow,2
2013-1-8,39,21,3,21,11,-2,88,74,45,30.40,30.31,30.25,10,9,7,5,1,,0.00,0,,36
2013-1-9,43,24,6,27,16,3,92,76,49,30.41,30.22,29.97,10,7,3,17,2,29,0.00,3,,257
2013-1-10,39,31,23,32,23,19,85,62,49,30.56,30.37,30.00,10,10,7,15,9,28,0.01,4,Rain,319
2013-1-11,35,26,18,31,25,14,92,84,61,30.56,30.32,30.15,10,7,0,4,0,,0.12,5,Fog-Rain,53
2013-1-12,39,36,33,37,33,30,100,92,86,30.19,30.14,30.10,10,3,0,7,1,,0.00,8,Fog,185
2013-1-13,43,38,33,41,36,33,100,93,85,30.14,30.04,29.93,9,2,0,13,1,,0.00,8,Fog,186
2013-1-14,55,44,32,43,34,23,93,76,37,30.26,30.02,29.84,10,8,1,15,4,25,0.00,5,Rain,231
2013-1-15,36,30,24,25,22,18,88,73,54,30.33,30.28,30.25,10,10,10,4,0,,0.00,4,,330
2013-1-16,30,26,21,27,25,18,93,86,75,30.24,29.93,29.77,10,4,0,6,1,,0.24,7,Fog-Snow,346
2013-1-17,36,26,14,28,15,-1,91,68,41,30.15,29.98,29.81,10,8,2,18,5,25,0.00,4,Snow,353
2013-1-18,19,10,0,5,-4,-10,77,55,30,30.40,30.31,30.14,10,10,9,13,5,23,0.00,2,,343
2013-1-19,39,29,19,25,17,4,71,57,47,30.28,30.03,29.79,10,10,4,17,10,22,0.00,7,Snow,186
2013-1-20,42,32,21,30,17,-3,68,51,35,29.94,29.68,29.49,10,10,10,21,12,32,0.00,4,Rain,231
2013-1-21,25,18,10,16,9,-5,86,67,37,30.06,29.90,29.75,10,6,1,15,5,24,0.02,6,Snow,322
2013-1-22,19,10,0,13,5,-7,86,68,38,30.07,29.87,29.74,10,7,1,15,4,25,0.02,5,Snow,315
2013-1-23,7,-1,-9,-6,-12,-17,76,58,33,30.19,30.12,30.03,10,8,2,14,5,18,0.00,3,Snow,348
2013-1-24,12,-2,-15,-10,-15,-21,75,53,30,30.32,30.21,30.14,10,10,8,14,4,26,0.00,0,,318
2013-1-25,17,8,-2,4,-7,-11,75,52,28,30.37,30.25,30.06,10,9,2,9,4,,0.00,2,Snow,348
2013-1-26,18,10,1,4,-3,-11,80,58,30,30.28,30.16,30.08,10,10,7,15,4,25,0.00,2,,335
2013-1-27,25,12,0,3,-4,-9,80,59,24,30.51,30.42,30.23,10,10,8,12,2,21,0.00,1,,331
2013-1-28,19,10,3,15,8,-4,86,77,53,30.51,30.18,30.00,10,3,0,5,1,,0.28,7,Fog-Snow,351
2013-1-29,33,26,19,30,21,14,93,83,69,30.22,30.12,30.02,10,6,1,5,1,,0.04,8,Rain-Snow,330
2013-1-30,51,42,32,48,38,30,93,90,86,30.07,29.71,29.34,10,5,0,17,3,23,0.10,8,Fog-Rain,183
2013-1-31,57,40,24,54,35,9,96,77,40,29.54,29.18,28.83,10,4,0,23,7,46,0.56,8,Fog-Rain-Snow,248